Time;durP1;ratioP1;P1;durP2;ratioP2;P2;SDS_P1;SDS_P2;PMS_P1;PMS_P2;Temp;Humidity;BMP_temperature;BMP_pressure;BME280_temperature;BME280_humidity;BME280_pressure;Samples;Min_cycle;Max_cycle;Signal;HPM_P1;HPM_P2
2021/10/02 00:31:09;;;;;;;50.83;26.63;;;11.10;99.90;;;;;;4885232;29;20185;-90
2021/10/02 00:45:51;;;;;;;48.40;27.73;;;11.10;99.90;;;;;;4899711;29;20181;-91
2021/10/02 00:48:18;;;;;;;54.63;29.40;;;11.10;99.90;;;;;;4882217;29;20192;-91
2021/10/02 00:50:47;;;;;;;51.60;28.70;;;11.10;99.90;;;;;;4882838;29;20196;-91
2021/10/02 00:53:14;;;;;;;55.47;29.55;;;11.00;99.90;;;;;;4883143;29;20173;-91
2021/10/02 00:55:41;;;;;;;59.40;30.43;;;11.00;99.90;;;;;;4883237;29;20178;-91
2021/10/02 00:58:06;;;;;;;65.88;36.35;;;11.00;99.90;;;;;;4907121;29;20424;-91
2021/10/02 01:00:33;;;;;;;56.07;32.00;;;11.00;99.90;;;;;;4873755;29;20189;-92
2021/10/02 01:03:38;;;;;;;53.83;32.17;;;11.00;99.90;;;;;;4892487;29;20196;-92
2021/10/02 01:06:22;;;;;;;59.93;31.57;;;11.00;99.90;;;;;;4873550;29;20193;-91
2021/10/02 01:09:00;;;;;;;61.08;32.60;;;9.70;99.90;;;;;;4863943;29;20227;-91
2021/10/02 01:12:05;;;;;;;64.50;34.25;;;10.90;99.90;;;;;;4880676;29;20549;-93
2021/10/02 01:14:40;;;;;;;58.80;31.63;;;10.90;99.90;;;;;;4880744;29;20170;-91
2021/10/02 01:17:33;;;;;;;60.77;33.73;;;10.90;99.90;;;;;;4863512;29;20239;-92
2021/10/02 01:20:10;;;;;;;64.38;33.03;;;10.90;99.90;;;;;;4863673;29;20189;-91
2021/10/02 01:22:50;;;;;;;58.63;33.93;;;10.90;99.90;;;;;;4863842;29;20192;-91
2021/10/02 01:25:43;;;;;;;62.87;32.57;;;10.80;99.90;;;;;;4864012;29;20197;-91
2021/10/02 01:28:09;;;;;;;67.17;33.47;;;10.80;99.90;;;;;;4880520;29;20178;-92
2021/10/02 01:33:37;;;;;;;65.83;32.83;;;10.80;99.90;;;;;;4865970;29;20238;-91
2021/10/02 01:47:36;;;;;;;70.13;31.13;;;10.70;99.90;;;;;;4880409;29;20180;-91
2021/10/02 01:50:03;;;;;;;59.38;32.22;;;10.70;99.90;;;;;;4863925;29;20262;-90
2021/10/02 01:52:33;;;;;;;60.90;31.67;;;10.70;99.90;;;;;;4879373;29;20190;-92
2021/10/02 01:55:00;;;;;;;68.63;33.70;;;10.70;99.90;;;;;;4875008;29;20178;-92
2021/10/02 01:57:30;;;;;;;61.57;32.60;;;10.60;99.90;;;;;;4864460;29;20177;-91
2021/10/02 02:00:00;;;;;;;61.63;33.63;;;12.50;99.90;;;;;;4879902;29;20226;-91
2021/10/02 02:02:31;;;;;;;60.10;33.20;;;10.60;99.90;;;;;;4863636;29;20178;-91
2021/10/02 02:04:59;;;;;;;68.80;35.50;;;10.60;99.90;;;;;;4863221;29;20222;-91
2021/10/02 02:07:28;;;;;;;62.63;31.87;;;10.60;99.90;;;;;;4880207;29;20185;-91
2021/10/02 02:09:56;;;;;;;62.28;34.38;;;10.60;99.90;;;;;;4879621;29;20233;-91
2021/10/02 02:12:22;;;;;;;63.60;32.67;;;10.50;99.90;;;;;;4863620;29;20273;-92
2021/10/02 02:14:50;;;;;;;65.93;33.77;;;10.60;99.90;;;;;;4863344;29;20313;-88
2021/10/02 02:17:21;;;;;;;68.33;34.70;;;11.00;99.90;;;;;;4863128;29;20256;-91
2021/10/02 02:19:47;;;;;;;65.00;33.97;;;10.60;99.90;;;;;;4880178;29;20182;-91
2021/10/02 02:22:14;;;;;;;65.03;33.17;;;10.60;99.90;;;;;;4863063;29;20189;-90
2021/10/02 02:24:39;;;;;;;65.10;31.40;;;10.60;99.90;;;;;;4863275;29;20186;-91
2021/10/02 02:27:06;;;;;;;56.23;29.43;;;10.60;99.90;;;;;;4862919;29;20662;-91
2021/10/02 02:29:33;;;;;;;56.03;29.57;;;10.60;99.90;;;;;;4847726;29;20264;-91
2021/10/02 02:32:00;;;;;;;52.47;27.80;;;10.60;99.90;;;;;;4862857;29;20190;-92
2021/10/02 02:34:28;;;;;;;58.30;26.30;;;10.70;99.90;;;;;;4863426;29;20239;-91
2021/10/02 02:36:55;;;;;;;43.57;24.37;;;10.60;99.90;;;;;;4879653;29;20174;-90
2021/10/02 02:39:21;;;;;;;42.43;23.37;;;10.70;99.90;;;;;;4879831;29;20182;-91
2021/10/02 02:41:46;;;;;;;40.63;22.90;;;10.60;99.90;;;;;;4879620;29;20654;-91
2021/10/02 02:44:12;;;;;;;40.87;22.17;;;11.10;99.90;;;;;;4862774;29;20190;-92
2021/10/02 02:46:39;;;;;;;47.50;22.87;;;10.70;99.90;;;;;;4865536;29;20230;-92
2021/10/02 02:49:34;;;;;;;37.73;20.67;;;11.00;99.90;;;;;;4879658;29;20225;-91
2021/10/02 02:52:14;;;;;;;37.30;19.83;;;10.80;99.90;;;;;;4862857;29;20198;-92
2021/10/02 02:54:59;;;;;;;39.97;19.63;;;9.40;99.90;;;;;;4870996;29;20178;-91
2021/10/02 02:57:27;;;;;;;36.77;19.23;;;10.80;99.90;;;;;;4863717;29;20182;-92
2021/10/02 03:00:08;;;;;;;36.45;19.33;;;10.80;99.90;;;;;;4862975;29;20542;-87
2021/10/02 03:02:39;;;;;;;30.07;17.83;;;10.80;99.90;;;;;;4879510;29;20178;-91
2021/10/02 03:05:06;;;;;;;32.13;17.07;;;10.80;99.90;;;;;;4863201;29;20182;-91
2021/10/02 03:07:37;;;;;;;27.73;17.17;;;10.80;99.90;;;;;;4880530;29;20174;-91
2021/10/02 03:10:03;;;;;;;29.70;16.80;;;10.80;99.90;;;;;;4863327;29;20241;-92
2021/10/02 03:12:36;;;;;;;31.57;16.57;;;11.10;99.90;;;;;;4850182;29;20666;-90
2021/10/02 03:15:03;;;;;;;25.53;15.20;;;10.70;99.90;;;;;;4882754;29;20522;-90
2021/10/02 03:17:30;;;;;;;24.23;15.07;;;10.80;99.90;;;;;;4850592;29;20237;-89
2021/10/02 03:19:59;;;;;;;25.30;14.67;;;10.70;99.90;;;;;;4882628;29;20186;-89
2021/10/02 03:22:27;;;;;;;28.20;15.77;;;10.80;99.90;;;;;;4865904;29;20182;-91
2021/10/02 03:24:54;;;;;;;27.10;15.23;;;10.70;99.90;;;;;;4882842;29;20193;-90
2021/10/02 03:27:20;;;;;;;25.83;14.90;;;10.70;99.90;;;;;;4866364;29;20646;-90
2021/10/02 03:29:47;;;;;;;24.33;14.77;;;10.70;99.90;;;;;;4865688;29;20206;-88
2021/10/02 03:32:14;;;;;;;25.08;14.65;;;10.70;99.90;;;;;;4850257;29;20186;-88
2021/10/02 03:34:39;;;;;;;24.70;14.60;;;10.80;99.90;;;;;;4855415;29;20194;-90
2021/10/02 03:37:07;;;;;;;27.33;15.37;;;10.70;99.90;;;;;;4870747;29;20196;-89
2021/10/02 03:39:33;;;;;;;24.42;14.40;;;10.80;99.90;;;;;;4852974;29;20533;-89
2021/10/02 03:42:14;;;;;;;24.20;14.10;;;10.80;99.90;;;;;;4865284;29;20222;-89
2021/10/02 03:44:42;;;;;;;23.70;14.25;;;10.70;99.90;;;;;;4882362;29;20174;-89
2021/10/02 03:47:13;;;;;;;25.37;14.27;;;10.70;99.90;;;;;;4881931;29;20186;-89
2021/10/02 03:49:39;;;;;;;25.80;13.63;;;10.70;99.90;;;;;;4850468;29;20225;-90
2021/10/02 03:52:06;;;;;;;25.30;14.03;;;10.80;99.90;;;;;;4881965;29;20298;-90
2021/10/02 03:54:33;;;;;;;22.50;13.27;;;10.70;99.90;;;;;;4867563;29;20194;-89
2021/10/02 03:56:58;;;;;;;21.77;12.63;;;10.70;99.90;;;;;;4887953;29;20182;-87
2021/10/02 03:59:24;;;;;;;21.83;13.20;;;;;;;;;;4885161;29;20190;-89
2021/10/02 04:01:50;;;;;;;23.10;14.00;;;10.60;99.90;;;;;;4850340;29;20644;-90
2021/10/02 04:04:16;;;;;;;23.10;12.53;;;10.60;99.90;;;;;;4870572;29;20192;-89
2021/10/02 04:06:41;;;;;;;20.57;11.10;;;10.70;99.90;;;;;;4874073;29;20190;-90
2021/10/02 04:09:07;;;;;;;38.07;12.53;;;10.70;99.90;;;;;;4865960;29;20233;-91
2021/10/02 04:11:33;;;;;;;19.73;11.63;;;11.30;99.90;;;;;;4871723;29;20623;-90
2021/10/02 04:14:00;;;;;;;20.97;12.57;;;10.60;99.90;;;;;;4869315;29;20185;-90
2021/10/02 04:16:26;;;;;;;22.30;12.40;;;10.60;99.90;;;;;;4865939;29;20237;-89
2021/10/02 04:18:51;;;;;;;21.47;11.77;;;10.60;99.90;;;;;;4849668;29;20201;-89
2021/10/02 04:21:17;;;;;;;19.87;11.93;;;10.60;99.90;;;;;;4864868;29;20186;-90
2021/10/02 04:23:43;;;;;;;20.33;11.40;;;;;;;;;;4849412;29;20218;-89
2021/10/02 04:26:09;;;;;;;19.40;12.40;;;10.70;99.90;;;;;;4864689;29;20601;-90
2021/10/02 04:28:34;;;;;;;18.97;12.20;;;10.70;99.90;;;;;;4881382;29;20214;-90
2021/10/02 04:31:03;;;;;;;22.90;12.40;;;10.70;99.90;;;;;;4864935;29;20186;-90
2021/10/02 04:33:29;;;;;;;29.10;15.50;;;10.70;99.90;;;;;;4865498;29;20193;-90
2021/10/02 04:35:55;;;;;;;32.07;15.63;;;10.70;99.90;;;;;;4865089;29;20197;-89
2021/10/02 04:38:21;;;;;;;43.93;20.53;;;10.70;99.90;;;;;;4887706;29;20185;-91
2021/10/02 04:40:47;;;;;;;22.30;12.93;;;10.70;99.90;;;;;;4870462;29;20182;-90
2021/10/02 04:43:12;;;;;;;20.33;12.50;;;10.70;99.90;;;;;;4892520;29;20185;-90
2021/10/02 04:45:38;;;;;;;25.27;11.10;;;10.70;99.90;;;;;;4865565;29;20697;-91
2021/10/02 04:48:04;;;;;;;19.80;12.00;;;10.70;99.90;;;;;;4866429;29;20186;-88
2021/10/02 04:50:32;;;;;;;17.60;11.67;;;10.70;99.90;;;;;;4856097;29;20237;-90
2021/10/02 04:52:59;;;;;;;17.70;11.67;;;10.70;99.90;;;;;;4864873;29;20225;-90
2021/10/02 04:55:25;;;;;;;17.50;10.70;;;10.30;99.90;;;;;;4866498;29;20201;-89
2021/10/02 04:57:51;;;;;;;20.57;11.30;;;10.70;99.90;;;;;;4878166;29;20200;-92
2021/10/02 05:00:16;;;;;;;17.80;10.77;;;10.70;99.90;;;;;;4897622;29;20193;-90
2021/10/02 05:02:43;;;;;;;19.27;10.67;;;;;;;;;;4849871;29;20556;-90
2021/10/02 05:05:08;;;;;;;21.87;11.90;;;10.70;99.90;;;;;;4898202;29;20276;-91
2021/10/02 05:07:34;;;;;;;20.37;11.63;;;10.60;99.90;;;;;;4881597;29;20300;-90
2021/10/02 05:10:00;;;;;;;18.37;11.67;;;;;;;;;;4865041;29;20268;-88
2021/10/02 05:12:26;;;;;;;24.33;12.83;;;10.60;99.90;;;;;;4880903;29;20197;-91
2021/10/02 05:14:51;;;;;;;27.33;15.27;;;10.70;99.90;;;;;;4897275;29;20194;-90
2021/10/02 05:17:17;;;;;;;31.20;16.80;;;10.70;99.90;;;;;;4877835;29;20603;-88
2021/10/02 05:19:44;;;;;;;50.70;24.97;;;10.70;99.90;;;;;;4880730;29;20197;-91
2021/10/02 05:22:09;;;;;;;18.80;11.80;;;10.70;99.90;;;;;;4880317;29;20185;-90
2021/10/02 05:24:37;;;;;;;14.27;9.57;;;;;;;;;;4881059;29;20189;-89
2021/10/02 05:27:10;;;;;;;33.00;17.10;;;10.70;99.90;;;;;;4890483;29;20186;-89
2021/10/02 05:29:38;;;;;;;18.60;10.73;;;10.70;99.90;;;;;;4888581;29;20254;-91
2021/10/02 05:32:06;;;;;;;15.53;10.03;;;10.70;99.90;;;;;;4920018;29;20238;-89
2021/10/02 05:34:32;;;;;;;20.83;10.90;;;10.70;99.90;;;;;;4902738;29;20185;-87
2021/10/02 05:36:57;;;;;;;21.20;9.80;;;10.70;99.90;;;;;;4901790;29;20186;-87
2021/10/02 05:39:24;;;;;;;26.57;13.40;;;;;;;;;;4896188;29;20341;-88
2021/10/02 05:41:50;;;;;;;22.97;13.83;;;10.80;99.90;;;;;;4863625;29;20193;-89
2021/10/02 05:44:16;;;;;;;14.90;9.53;;;10.80;99.90;;;;;;4894317;29;20227;-90
2021/10/02 05:46:42;;;;;;;23.87;14.63;;;;;;;;;;4878639;29;20663;-89
2021/10/02 05:49:08;;;;;;;16.43;9.80;;;10.80;99.90;;;;;;4879980;29;20299;-93
2021/10/02 05:51:33;;;;;;;21.37;9.63;;;10.90;99.90;;;;;;4882009;29;20658;-87
2021/10/02 05:53:59;;;;;;;19.23;11.10;;;10.90;99.90;;;;;;4919071;29;20899;-88
2021/10/02 05:56:25;;;;;;;26.67;13.90;;;10.90;99.90;;;;;;4887504;29;20177;-88
2021/10/02 05:58:53;;;;;;;21.43;11.23;;;10.90;99.90;;;;;;4864133;29;20193;-89
2021/10/02 06:01:19;;;;;;;17.00;8.87;;;11.00;99.90;;;;;;4864100;29;20193;-87
2021/10/02 06:03:45;;;;;;;14.07;9.00;;;11.00;99.90;;;;;;4892649;29;20189;-91
2021/10/02 06:06:14;;;;;;;16.67;9.53;;;11.00;99.90;;;;;;4877093;29;20712;-88
2021/10/02 06:08:40;;;;;;;16.83;10.30;;;11.00;99.90;;;;;;4878395;29;20225;-88
2021/10/02 06:11:06;;;;;;;36.13;17.57;;;11.00;99.90;;;;;;4877493;29;20197;-88
2021/10/02 06:13:35;;;;;;;21.17;10.67;;;11.00;99.90;;;;;;4878325;29;20199;-87
2021/10/02 06:16:01;;;;;;;14.17;8.80;;;11.00;99.90;;;;;;4848172;29;20328;-89
2021/10/02 06:18:27;;;;;;;13.27;8.83;;;11.00;99.90;;;;;;4895322;29;20193;-86
2021/10/02 06:20:53;;;;;;;18.37;10.33;;;11.00;99.90;;;;;;4879096;29;20200;-88
2021/10/02 06:23:19;;;;;;;16.13;10.13;;;11.00;99.90;;;;;;4891813;29;20556;-88
2021/10/02 06:25:45;;;;;;;17.83;10.03;;;11.10;99.90;;;;;;4871508;29;20631;-88
2021/10/02 06:28:11;;;;;;;12.57;8.40;;;11.10;99.90;;;;;;4854664;29;20199;-89
2021/10/02 06:30:37;;;;;;;22.57;12.50;;;;;;;;;;4892441;29;20198;-89
2021/10/02 06:33:03;;;;;;;17.77;10.57;;;11.10;99.90;;;;;;4874114;29;20186;-88
2021/10/02 06:35:28;;;;;;;11.90;8.10;;;11.20;99.90;;;;;;4876523;29;20244;-88
2021/10/02 06:37:54;;;;;;;14.40;8.70;;;11.10;99.90;;;;;;4900965;29;20221;-88
2021/10/02 06:40:20;;;;;;;15.70;8.93;;;11.10;99.90;;;;;;4884826;29;20197;-89
2021/10/02 06:42:49;;;;;;;25.17;12.43;;;11.20;99.90;;;;;;4881835;29;20284;-87
2021/10/02 06:45:14;;;;;;;15.13;9.97;;;11.20;99.90;;;;;;4867735;29;20240;-87
2021/10/02 06:47:40;;;;;;;13.70;8.90;;;11.30;99.90;;;;;;4885439;29;20189;-87
2021/10/02 06:50:06;;;;;;;15.73;9.20;;;11.30;99.90;;;;;;4858544;29;20220;-88
2021/10/02 06:52:32;;;;;;;16.83;9.60;;;11.30;99.90;;;;;;4905219;29;20187;-89
2021/10/02 06:54:58;;;;;;;15.23;9.23;;;11.40;99.90;;;;;;4887469;29;20185;-88
2021/10/02 06:57:24;;;;;;;16.57;9.27;;;11.30;99.90;;;;;;4904757;29;20840;-88
2021/10/02 06:59:50;;;;;;;18.43;10.17;;;11.30;99.90;;;;;;4888002;29;20257;-86
2021/10/02 07:02:16;;;;;;;16.70;9.38;;;11.40;99.90;;;;;;4886016;29;20707;-86
2021/10/02 07:04:44;;;;;;;16.20;10.38;;;11.40;99.90;;;;;;4903980;29;20264;-87
2021/10/02 07:07:10;;;;;;;15.95;8.60;;;11.50;99.90;;;;;;4905977;29;20184;-86
2021/10/02 07:09:36;;;;;;;14.60;8.67;;;11.50;99.90;;;;;;4892260;29;20601;-88
2021/10/02 07:12:03;;;;;;;17.93;9.30;;;11.60;99.90;;;;;;4905076;29;20213;-89
2021/10/02 07:14:29;;;;;;;22.27;11.73;;;11.60;99.90;;;;;;4887551;29;20193;-88
2021/10/02 07:16:55;;;;;;;13.55;9.13;;;11.70;99.90;;;;;;4870062;29;20241;-88
2021/10/02 07:19:21;;;;;;;14.00;8.55;;;11.80;99.90;;;;;;4886622;29;20200;-88
2021/10/02 07:21:47;;;;;;;15.95;10.13;;;11.80;99.90;;;;;;4885664;29;20188;-87
2021/10/02 07:24:15;;;;;;;14.10;9.32;;;11.90;99.90;;;;;;4886167;29;20193;-88
2021/10/02 07:26:43;;;;;;;13.52;9.30;;;11.90;99.90;;;;;;4869999;29;20190;-87
2021/10/02 07:29:09;;;;;;;11.27;8.05;;;11.90;99.90;;;;;;4902831;29;20236;-88
2021/10/02 07:31:35;;;;;;;14.52;9.40;;;11.90;99.90;;;;;;4885564;29;20237;-87
2021/10/02 07:34:00;;;;;;;13.90;8.45;;;11.90;99.90;;;;;;4885368;29;20185;-87
2021/10/02 07:36:26;;;;;;;12.40;9.02;;;12.00;99.90;;;;;;4902406;29;20199;-88
2021/10/02 07:38:52;;;;;;;14.77;8.68;;;12.10;99.90;;;;;;4870082;29;20272;-87
2021/10/02 07:41:18;;;;;;;12.77;7.97;;;12.10;99.90;;;;;;4871616;29;20185;-87
2021/10/02 07:43:47;;;;;;;12.18;8.75;;;12.20;99.90;;;;;;4885230;29;20200;-85
2021/10/02 07:46:15;;;;;;;13.75;8.48;;;12.20;99.90;;;;;;4869247;29;20196;-89
2021/10/02 07:48:41;;;;;;;11.32;8.00;;;12.70;99.90;;;;;;4883985;29;20252;-87
2021/10/02 07:51:11;;;;;;;10.25;7.60;;;12.20;99.90;;;;;;4884092;29;20201;-87
2021/10/02 07:53:38;;;;;;;9.70;7.65;;;12.30;99.90;;;;;;4884317;29;20610;-86
2021/10/02 07:56:06;;;;;;;12.15;7.90;;;12.40;99.90;;;;;;4884303;29;20321;-86
2021/10/02 07:58:33;;;;;;;18.15;9.00;;;12.40;99.90;;;;;;4883186;29;20181;-86
2021/10/02 08:00:59;;;;;;;17.30;9.55;;;12.50;99.90;;;;;;4868817;29;20213;-86
2021/10/02 08:03:25;;;;;;;10.50;7.78;;;12.60;99.90;;;;;;4901051;29;20178;-86
2021/10/02 08:05:51;;;;;;;11.02;8.32;;;12.60;99.90;;;;;;4875620;29;20192;-86
2021/10/02 08:08:19;;;;;;;12.52;8.15;;;12.50;99.90;;;;;;4891188;29;20711;-86
2021/10/02 08:10:46;;;;;;;11.77;8.32;;;12.60;99.90;;;;;;4879721;29;20193;-87
2021/10/02 08:13:13;;;;;;;13.30;8.55;;;12.70;99.90;;;;;;4892239;29;20677;-85
2021/10/02 08:15:42;;;;;;;13.68;8.85;;;13.30;99.90;;;;;;4855769;29;20643;-85
2021/10/02 08:18:11;;;;;;;12.68;8.02;;;13.60;99.90;;;;;;4892479;29;20230;-86
2021/10/02 08:20:39;;;;;;;10.10;7.43;;;13.30;99.90;;;;;;4893823;29;20229;-85
2021/10/02 08:23:05;;;;;;;9.55;7.40;;;13.40;99.90;;;;;;4875496;29;20181;-85
2021/10/02 08:25:32;;;;;;;10.15;7.13;;;13.60;99.90;;;;;;4900048;29;20220;-85
2021/10/02 08:28:02;;;;;;;11.57;7.03;;;13.50;99.90;;;;;;4883806;29;20197;-86
2021/10/02 08:30:28;;;;;;;9.65;7.22;;;13.70;99.90;;;;;;4900180;29;20243;-86
2021/10/02 08:32:54;;;;;;;9.35;6.55;;;13.70;99.90;;;;;;4900370;29;20208;-85
2021/10/02 08:35:20;;;;;;;10.02;6.70;;;13.80;99.90;;;;;;4883374;29;20208;-85
2021/10/02 08:37:46;;;;;;;11.27;7.10;;;13.80;99.90;;;;;;4883117;29;20690;-86
2021/10/02 08:40:16;;;;;;;11.75;7.18;;;13.90;99.90;;;;;;4883300;29;20185;-85
2021/10/02 08:42:42;;;;;;;11.82;6.88;;;14.00;99.90;;;;;;4891531;29;20181;-85
2021/10/02 08:45:09;;;;;;;10.38;7.15;;;14.10;99.90;;;;;;4868613;29;20221;-86
2021/10/02 08:47:38;;;;;;;10.98;6.72;;;14.10;99.90;;;;;;4864638;29;20182;-85
2021/10/02 08:50:06;;;;;;;10.65;7.63;;;14.30;99.90;;;;;;4883053;29;20330;-85
2021/10/02 08:52:32;;;;;;;11.85;7.00;;;14.30;99.90;;;;;;4899470;29;20276;-85
2021/10/02 08:55:00;;;;;;;9.10;7.07;;;14.40;99.90;;;;;;4883057;29;20213;-87
2021/10/02 08:57:27;;;;;;;10.38;6.40;;;14.50;99.90;;;;;;4882653;29;20188;-85
2021/10/02 08:59:55;;;;;;;8.82;6.60;;;14.80;99.90;;;;;;4899412;29;20204;-85
2021/10/02 09:02:23;;;;;;;11.77;6.45;;;14.60;99.90;;;;;;4899565;29;20257;-85
2021/10/02 09:04:50;;;;;;;9.18;6.60;;;14.70;99.90;;;;;;4884017;29;20745;-85
2021/10/02 09:07:19;;;;;;;8.93;6.22;;;14.80;99.90;;;;;;4899888;29;20181;-84
2021/10/02 09:09:46;;;;;;;9.52;6.45;;;14.90;99.90;;;;;;4898110;29;20686;-85
2021/10/02 09:12:16;;;;;;;8.43;6.75;;;15.00;99.90;;;;;;4883441;29;20249;-85
2021/10/02 09:14:42;;;;;;;7.43;6.18;;;15.00;99.90;;;;;;4883784;29;20230;-86
2021/10/02 09:17:08;;;;;;;9.75;6.57;;;15.20;99.90;;;;;;4867608;29;20695;-87
2021/10/02 09:19:34;;;;;;;9.50;6.60;;;15.20;99.90;;;;;;4866679;29;20249;-85
2021/10/02 09:22:09;;;;;;;10.07;7.53;;;15.30;99.90;;;;;;4899138;29;20185;-85
2021/10/02 09:24:37;;;;;;;10.68;6.57;;;15.40;99.90;;;;;;4898549;29;20253;-86
2021/10/02 09:27:11;;;;;;;8.63;6.70;;;15.50;99.90;;;;;;4899195;29;20189;-86
2021/10/02 09:29:40;;;;;;;12.38;5.88;;;15.60;99.90;;;;;;4881908;29;20663;-86
2021/10/02 09:32:09;;;;;;;8.63;6.20;;;15.80;99.90;;;;;;4899245;29;20185;-86
2021/10/02 09:34:49;;;;;;;7.47;5.82;;;15.80;99.90;;;;;;4898741;29;20184;-86
2021/10/02 09:37:27;;;;;;;7.07;5.53;;;16.00;99.90;;;;;;4873936;29;20272;-87
2021/10/02 09:40:13;;;;;;;9.45;6.75;;;16.00;99.90;;;;;;4887895;29;20184;-86
2021/10/02 09:42:41;;;;;;;12.70;6.90;;;16.10;99.90;;;;;;4887680;29;20663;-86
2021/10/02 09:45:13;;;;;;;8.20;6.20;;;16.10;99.90;;;;;;4890637;29;20174;-88
2021/10/02 09:47:40;;;;;;;8.90;6.57;;;16.10;99.90;;;;;;4871439;29;20748;-86
2021/10/02 09:50:18;;;;;;;10.10;6.38;;;16.20;99.90;;;;;;4871259;29;20197;-87
2021/10/02 09:52:54;;;;;;;10.75;7.53;;;16.30;99.90;;;;;;4889399;29;20174;-87
2021/10/02 09:55:44;;;;;;;11.90;8.25;;;16.40;99.90;;;;;;4877423;29;20260;-87
2021/10/02 09:58:28;;;;;;;11.80;7.22;;;16.50;99.90;;;;;;4890409;29;20242;-87
2021/10/02 10:00:55;;;;;;;8.55;6.72;;;16.60;99.90;;;;;;4893134;29;20169;-86
2021/10/02 10:03:22;;;;;;;9.32;6.32;;;16.60;99.90;;;;;;4868561;29;20185;-86
2021/10/02 10:05:54;;;;;;;9.20;6.35;;;16.70;99.90;;;;;;4883509;29;20543;-86
2021/10/02 10:08:26;;;;;;;10.05;6.75;;;17.00;99.90;;;;;;4866240;29;20209;-87
2021/10/02 10:11:13;;;;;;;12.10;7.13;;;17.20;99.90;;;;;;4868217;29;20204;-85
2021/10/02 10:13:41;;;;;;;8.60;6.35;;;17.40;99.90;;;;;;4889163;29;20206;-86
2021/10/02 10:16:08;;;;;;;9.93;6.65;;;17.50;99.90;;;;;;4874602;29;20285;-88
2021/10/02 10:18:38;;;;;;;10.07;6.50;;;17.20;99.90;;;;;;4891301;29;20181;-88
2021/10/02 10:21:11;;;;;;;11.82;6.75;;;17.20;99.90;;;;;;4880054;29;20185;-88
2021/10/02 10:23:45;;;;;;;10.10;5.63;;;17.30;99.90;;;;;;4892927;29;20280;-87
2021/10/02 10:26:14;;;;;;;8.45;6.35;;;17.40;99.90;;;;;;4876159;29;20268;-89
2021/10/02 10:28:42;;;;;;;9.70;6.20;;;17.50;99.90;;;;;;4897827;29;20184;-87
2021/10/02 10:31:22;;;;;;;9.57;6.60;;;17.60;99.90;;;;;;4885287;29;20203;-86
2021/10/02 10:33:50;;;;;;;9.10;6.60;;;17.70;99.90;;;;;;4890170;29;20166;-88
2021/10/02 10:36:17;;;;;;;9.32;6.40;;;17.80;99.90;;;;;;4869034;29;20185;-88
2021/10/02 10:38:43;;;;;;;9.70;6.85;;;17.90;99.90;;;;;;4850752;29;20594;-85
2021/10/02 10:41:11;;;;;;;7.78;5.88;;;18.10;99.90;;;;;;4865869;29;20213;-85
2021/10/02 10:43:37;;;;;;;8.32;6.18;;;18.10;99.90;;;;;;4883822;29;20227;-84
2021/10/02 10:46:08;;;;;;;9.05;6.30;;;18.20;99.90;;;;;;4865285;29;20229;-85
2021/10/02 10:48:35;;;;;;;9.00;6.10;;;18.30;99.90;;;;;;4862939;29;20198;-86
2021/10/02 10:51:06;;;;;;;10.13;5.72;;;18.10;99.90;;;;;;4882061;29;20190;-85
2021/10/02 10:53:43;;;;;;;8.93;6.65;;;18.00;99.90;;;;;;4885033;29;20177;-85
2021/10/02 10:56:11;;;;;;;7.38;6.22;;;18.00;99.90;;;;;;4880252;29;20274;-85
2021/10/02 10:58:38;;;;;;;6.93;5.70;;;18.10;99.90;;;;;;4848475;29;20178;-86
2021/10/02 11:01:06;;;;;;;8.38;5.90;;;18.10;99.90;;;;;;4863510;29;20185;-87
2021/10/02 11:03:47;;;;;;;7.80;5.88;;;18.30;99.90;;;;;;4879222;29;20182;-86
2021/10/02 11:06:19;;;;;;;7.90;6.00;;;18.20;99.90;;;;;;4862539;29;20174;-87
2021/10/02 11:09:05;;;;;;;8.23;5.18;;;18.30;99.90;;;;;;4862785;29;20236;-84
2021/10/02 11:11:46;;;;;;;7.20;5.30;;;18.40;99.90;;;;;;4864754;29;20186;-84
2021/10/02 11:14:13;;;;;;;9.52;5.95;;;18.30;99.90;;;;;;4879746;29;20175;-84
2021/10/02 11:16:41;;;;;;;7.60;5.60;;;18.10;99.90;;;;;;4862528;29;20742;-85
2021/10/02 11:19:34;;;;;;;10.55;5.60;;;18.10;99.90;;;;;;4878654;29;20188;-86
2021/10/02 11:22:40;;;;;;;7.63;5.10;;;18.10;99.90;;;;;;4879382;29;20277;-86
2021/10/02 11:25:20;;;;;;;8.40;5.20;;;18.00;99.90;;;;;;4856966;29;20395;-85
2021/10/02 11:27:46;;;;;;;7.25;5.40;;;18.10;99.90;;;;;;4889733;29;20192;-86
2021/10/02 11:30:17;;;;;;;14.68;5.40;;;18.10;99.90;;;;;;4889227;29;20212;-85
2021/10/02 11:32:43;;;;;;;8.43;5.93;;;18.10;99.90;;;;;;4890106;29;20170;-87
2021/10/02 11:35:10;;;;;;;10.35;5.65;;;18.10;99.90;;;;;;4872731;29;20551;-87
2021/10/02 11:37:45;;;;;;;7.45;5.72;;;17.60;99.90;;;;;;4870749;29;20178;-88
2021/10/02 11:40:36;;;;;;;7.43;5.57;;;18.00;99.90;;;;;;4874363;29;20185;-87
2021/10/02 11:43:14;;;;;;;9.57;5.95;;;18.00;99.90;;;;;;4897877;29;20192;-88
2021/10/02 11:45:46;;;;;;;8.30;5.85;;;18.10;99.90;;;;;;4880604;29;20199;-89
2021/10/02 11:48:35;;;;;;;11.85;5.45;;;18.10;99.90;;;;;;4894193;29;20265;-87
2021/10/02 11:51:18;;;;;;;8.43;5.40;;;18.20;99.90;;;;;;4870270;29;20623;-89
2021/10/02 11:53:46;;;;;;;8.77;5.40;;;18.30;99.90;;;;;;4871872;29;20210;-88
2021/10/02 11:56:19;;;;;;;7.10;5.53;;;18.30;99.90;;;;;;4878379;29;20215;-88
2021/10/02 11:58:46;;;;;;;14.57;6.72;;;18.30;99.90;;;;;;4888835;29;20181;-88
2021/10/02 12:01:22;;;;;;;7.95;5.80;;;18.30;99.90;;;;;;4892475;29;20189;-88
2021/10/02 12:03:56;;;;;;;6.68;4.82;;;18.40;99.90;;;;;;4876604;29;20177;-88
2021/10/02 12:06:22;;;;;;;7.43;5.72;;;18.40;99.90;;;;;;4878273;29;20241;-87
2021/10/02 12:08:49;;;;;;;8.13;5.93;;;18.50;99.90;;;;;;4863435;29;20217;-89
2021/10/02 12:11:15;;;;;;;8.48;6.03;;;18.50;99.90;;;;;;4895049;29;20205;-87
2021/10/02 12:13:49;;;;;;;9.25;5.75;;;18.60;99.90;;;;;;4893820;29;20198;-88
2021/10/02 12:16:30;;;;;;;8.52;6.45;;;18.60;99.90;;;;;;4874410;29;20220;-88
2021/10/02 12:18:57;;;;;;;8.02;5.82;;;18.70;99.90;;;;;;4882058;29;20182;-88
2021/10/02 12:21:23;;;;;;;9.43;5.25;;;18.70;99.90;;;;;;4880972;29;20214;-88
2021/10/02 12:23:57;;;;;;;8.63;5.88;;;18.70;99.90;;;;;;4882132;29;20667;-88
2021/10/02 12:26:24;;;;;;;7.60;5.50;;;16.00;99.90;;;;;;4865171;29;20185;-89
2021/10/02 12:29:00;;;;;;;9.18;5.78;;;18.60;99.90;;;;;;4865236;29;20202;-89
2021/10/02 12:31:53;;;;;;;6.82;5.50;;;18.70;99.90;;;;;;4865344;29;20202;-88
2021/10/02 12:34:26;;;;;;;10.70;6.22;;;18.80;99.90;;;;;;4880147;29;20858;-87
2021/10/02 12:37:05;;;;;;;6.75;5.20;;;18.90;99.90;;;;;;4863609;29;20220;-88
2021/10/02 12:39:36;;;;;;;10.52;5.35;;;19.10;99.90;;;;;;4879774;29;20178;-87
2021/10/02 12:42:02;;;;;;;12.93;5.75;;;19.20;99.90;;;;;;4879874;29;20166;-88
2021/10/02 12:44:32;;;;;;;6.72;4.95;;;19.20;99.90;;;;;;4867892;29;20186;-88
2021/10/02 12:47:00;;;;;;;9.75;4.80;;;19.30;99.90;;;;;;4887828;29;20209;-88
2021/10/02 12:49:27;;;;;;;7.50;5.43;;;19.40;99.90;;;;;;4889872;29;20296;-88
2021/10/02 12:51:54;;;;;;;7.80;5.00;;;19.60;99.90;;;;;;4893547;29;20224;-89
2021/10/02 12:54:25;;;;;;;8.07;4.70;;;19.70;99.90;;;;;;4889125;29;20614;-89
2021/10/02 12:57:02;;;;;;;7.20;4.60;;;19.80;99.90;;;;;;4875408;29;20177;-87
2021/10/02 12:59:40;;;;;;;8.05;5.25;;;20.00;99.90;;;;;;4891614;29;20608;-89
2021/10/02 13:02:06;;;;;;;7.40;5.63;;;20.30;99.90;;;;;;4890561;29;20202;-89
2021/10/02 13:04:34;;;;;;;4.97;4.22;;;20.60;99.90;;;;;;4873075;29;20639;-89
2021/10/02 13:07:01;;;;;;;7.30;5.10;;;20.90;99.90;;;;;;4892016;29;20177;-90
2021/10/02 13:09:29;;;;;;;6.68;4.88;;;21.50;99.90;;;;;;4892506;29;20205;-88
2021/10/02 13:12:06;;;;;;;6.50;4.10;;;22.00;99.90;;;;;;4873391;29;20182;-89
2021/10/02 13:14:35;;;;;;;8.85;4.40;;;22.40;99.90;;;;;;4875816;29;20182;-88
2021/10/02 13:17:11;;;;;;;6.78;4.10;;;22.50;99.90;;;;;;4889321;29;20229;-88
2021/10/02 13:19:37;;;;;;;7.45;4.90;;;21.80;99.90;;;;;;4886296;29;20193;-88
2021/10/02 13:22:14;;;;;;;7.28;5.45;;;21.10;99.90;;;;;;4882123;29;20552;-87
2021/10/02 13:25:03;;;;;;;7.40;5.07;;;20.50;99.90;;;;;;4884211;29;20770;-87
2021/10/02 13:27:37;;;;;;;6.95;4.82;;;20.70;99.90;;;;;;4869878;29;20635;-88
2021/10/02 13:30:29;;;;;;;10.70;5.18;;;21.10;99.90;;;;;;4884994;29;20295;-88
2021/10/02 13:32:55;;;;;;;6.72;4.88;;;20.70;99.90;;;;;;4900749;29;20165;-89
2021/10/02 13:35:22;;;;;;;9.15;5.13;;;21.00;99.90;;;;;;4884256;29;20547;-88
2021/10/02 13:37:48;;;;;;;6.68;4.90;;;21.50;99.90;;;;;;4901167;29;20185;-89
2021/10/02 13:40:22;;;;;;;6.63;4.75;;;21.70;99.90;;;;;;4883704;29;20525;-91
2021/10/02 13:42:48;;;;;;;9.02;5.10;;;21.70;99.90;;;;;;4884479;29;20244;-88
2021/10/02 13:45:16;;;;;;;6.43;5.13;;;21.60;99.90;;;;;;4899966;29;20230;-90
2021/10/02 13:47:58;;;;;;;7.47;5.38;;;21.80;99.90;;;;;;4865524;29;20184;-88